Terminal Aerodrome Forecast
Issued by NWS

Home | Current Version | Previous Version | Text Only | Print | Product List | Glossary On
Versions: 1 2 3 4 5 6 7 8 9 10 11 12 13 14 15 16 17 18 19 20 21 22 23 24 25 26 27 28 29 30 31 32 33 34 35 36 37 38 39 40 41 42 43 44 45 46 47 48 49
000
FTAK31 PANC 031732
TAFADU
TAF
PADU 031732Z 0318/0418 32020G28KT 6SM -RA OVC015
      TEMPO 0318/0321 3SM -RA BR SCT015 OVC025
     FM032100 32017G24KT P6SM VCSH SCT015 OVC025
     FM040600 27009KT P6SM SCT025 OVC040
     FM041200 21011KT 3SM -RASN BR OVC015=

USA.gov is the U.S. government's official web portal to all federal, state and local government web resources and services.